sensor_id;sensor_type;location;lat;lon;timestamp;P1;durP1;ratioP1;P2;durP2;ratioP2
79412;SDS011;68863;49.528;11.010;2023-05-15T00:00:35;7.07;;;3.92;;
79412;SDS011;68863;49.528;11.010;2023-05-15T00:01:36;6.95;;;3.90;;
79412;SDS011;68863;49.528;11.010;2023-05-15T00:02:36;8.82;;;4.25;;
79412;SDS011;68863;49.528;11.010;2023-05-15T00:03:37;6.43;;;3.53;;
79412;SDS011;68863;49.528;11.010;2023-05-15T00:04:37;7.28;;;3.95;;
79412;SDS011;68863;49.528;11.010;2023-05-15T00:05:38;7.20;;;3.83;;
79412;SDS011;68863;49.528;11.010;2023-05-15T00:06:38;7.38;;;3.55;;
79412;SDS011;68863;49.528;11.010;2023-05-15T00:07:39;7.30;;;3.90;;
79412;SDS011;68863;49.528;11.010;2023-05-15T00:08:39;7.30;;;4.20;;
79412;SDS011;68863;49.528;11.010;2023-05-15T00:09:39;7.15;;;4.00;;
79412;SDS011;68863;49.528;11.010;2023-05-15T00:10:40;7.10;;;4.10;;
79412;SDS011;68863;49.528;11.010;2023-05-15T00:11:40;7.80;;;3.90;;
79412;SDS011;68863;49.528;11.010;2023-05-15T00:12:40;8.88;;;4.20;;
79412;SDS011;68863;49.528;11.010;2023-05-15T00:13:41;8.38;;;4.20;;
79412;SDS011;68863;49.528;11.010;2023-05-15T00:14:41;8.30;;;4.35;;
79412;SDS011;68863;49.528;11.010;2023-05-15T00:15:41;6.40;;;3.73;;
79412;SDS011;68863;49.528;11.010;2023-05-15T00:16:42;7.13;;;3.63;;
79412;SDS011;68863;49.528;11.010;2023-05-15T00:17:42;7.38;;;4.03;;
79412;SDS011;68863;49.528;11.010;2023-05-15T00:18:42;6.78;;;4.20;;
79412;SDS011;68863;49.528;11.010;2023-05-15T00:19:43;6.93;;;4.05;;
79412;SDS011;68863;49.528;11.010;2023-05-15T00:20:43;6.72;;;3.58;;
79412;SDS011;68863;49.528;11.010;2023-05-15T00:21:43;7.07;;;3.78;;
79412;SDS011;68863;49.528;11.010;2023-05-15T00:22:43;6.78;;;3.80;;
79412;SDS011;68863;49.528;11.010;2023-05-15T00:23:44;7.05;;;3.60;;
79412;SDS011;68863;49.528;11.010;2023-05-15T00:24:46;7.28;;;4.15;;
79412;SDS011;68863;49.528;11.010;2023-05-15T00:25:46;6.47;;;3.63;;
79412;SDS011;68863;49.528;11.010;2023-05-15T00:26:47;6.85;;;3.75;;
79412;SDS011;68863;49.528;11.010;2023-05-15T00:27:47;6.82;;;3.75;;
79412;SDS011;68863;49.528;11.010;2023-05-15T00:28:47;7.57;;;3.93;;
79412;SDS011;68863;49.528;11.010;2023-05-15T00:29:47;7.32;;;4.03;;
79412;SDS011;68863;49.528;11.010;2023-05-15T00:30:48;7.25;;;3.78;;
79412;SDS011;68863;49.528;11.010;2023-05-15T00:31:50;7.00;;;3.80;;
79412;SDS011;68863;49.528;11.010;2023-05-15T00:32:51;7.25;;;3.70;;
79412;SDS011;68863;49.528;11.010;2023-05-15T00:33:51;7.63;;;3.80;;
79412;SDS011;68863;49.528;11.010;2023-05-15T00:34:51;6.82;;;3.72;;
79412;SDS011;68863;49.528;11.010;2023-05-15T00:35:52;6.95;;;4.05;;
79412;SDS011;68863;49.528;11.010;2023-05-15T00:36:52;7.22;;;3.95;;
79412;SDS011;68863;49.528;11.010;2023-05-15T00:37:52;8.30;;;4.75;;
79412;SDS011;68863;49.528;11.010;2023-05-15T00:38:53;7.60;;;4.07;;
79412;SDS011;68863;49.528;11.010;2023-05-15T00:39:53;7.10;;;4.03;;
79412;SDS011;68863;49.528;11.010;2023-05-15T00:40:53;8.13;;;4.38;;
79412;SDS011;68863;49.528;11.010;2023-05-15T00:41:55;7.35;;;4.18;;
79412;SDS011;68863;49.528;11.010;2023-05-15T00:42:57;7.60;;;4.00;;
79412;SDS011;68863;49.528;11.010;2023-05-15T00:43:59;7.90;;;5.00;;
79412;SDS011;68863;49.528;11.010;2023-05-15T00:45:00;6.63;;;3.70;;
79412;SDS011;68863;49.528;11.010;2023-05-15T00:46:02;7.35;;;4.35;;
79412;SDS011;68863;49.528;11.010;2023-05-15T00:47:03;7.25;;;4.18;;
79412;SDS011;68863;49.528;11.010;2023-05-15T00:48:05;8.13;;;4.40;;
79412;SDS011;68863;49.528;11.010;2023-05-15T00:49:08;8.85;;;4.07;;
79412;SDS011;68863;49.528;11.010;2023-05-15T00:50:12;7.25;;;3.88;;
79412;SDS011;68863;49.528;11.010;2023-05-15T00:51:13;6.43;;;3.90;;
79412;SDS011;68863;49.528;11.010;2023-05-15T00:52:14;8.80;;;4.50;;
79412;SDS011;68863;49.528;11.010;2023-05-15T00:53:14;6.75;;;3.95;;
79412;SDS011;68863;49.528;11.010;2023-05-15T00:54:15;7.63;;;3.72;;
79412;SDS011;68863;49.528;11.010;2023-05-15T00:55:15;7.38;;;3.45;;
79412;SDS011;68863;49.528;11.010;2023-05-15T00:56:15;6.45;;;3.80;;
79412;SDS011;68863;49.528;11.010;2023-05-15T00:57:16;6.68;;;4.30;;
79412;SDS011;68863;49.528;11.010;2023-05-15T00:58:18;7.75;;;4.30;;
79412;SDS011;68863;49.528;11.010;2023-05-15T00:59:20;7.40;;;5.07;;
79412;SDS011;68863;49.528;11.010;2023-05-15T01:00:23;6.97;;;3.97;;
79412;SDS011;68863;49.528;11.010;2023-05-15T01:01:24;6.80;;;3.60;;
79412;SDS011;68863;49.528;11.010;2023-05-15T01:02:25;7.38;;;3.65;;
79412;SDS011;68863;49.528;11.010;2023-05-15T01:03:25;6.43;;;3.88;;
79412;SDS011;68863;49.528;11.010;2023-05-15T01:04:26;7.68;;;4.57;;
79412;SDS011;68863;49.528;11.010;2023-05-15T01:05:26;6.18;;;3.83;;
79412;SDS011;68863;49.528;11.010;2023-05-15T01:06:28;6.50;;;3.72;;
79412;SDS011;68863;49.528;11.010;2023-05-15T01:07:29;7.07;;;3.60;;
79412;SDS011;68863;49.528;11.010;2023-05-15T01:09:44;7.60;;;3.88;;
79412;SDS011;68863;49.528;11.010;2023-05-15T01:10:47;6.68;;;4.07;;
79412;SDS011;68863;49.528;11.010;2023-05-15T01:11:49;6.97;;;3.88;;
79412;SDS011;68863;49.528;11.010;2023-05-15T01:12:52;7.05;;;3.63;;
79412;SDS011;68863;49.528;11.010;2023-05-15T01:13:54;7.10;;;3.60;;
79412;SDS011;68863;49.528;11.010;2023-05-15T01:14:55;7.23;;;3.87;;
79412;SDS011;68863;49.528;11.010;2023-05-15T01:15:56;7.28;;;4.07;;
79412;SDS011;68863;49.528;11.010;2023-05-15T01:16:57;7.20;;;3.75;;
79412;SDS011;68863;49.528;11.010;2023-05-15T01:17:58;7.13;;;4.10;;
79412;SDS011;68863;49.528;11.010;2023-05-15T01:18:58;6.68;;;4.28;;
79412;SDS011;68863;49.528;11.010;2023-05-15T01:19:58;7.85;;;3.72;;
79412;SDS011;68863;49.528;11.010;2023-05-15T01:23:31;5.93;;;3.20;;
79412;SDS011;68863;49.528;11.010;2023-05-15T01:28:29;6.38;;;3.38;;
79412;SDS011;68863;49.528;11.010;2023-05-15T01:29:35;8.00;;;4.57;;
79412;SDS011;68863;49.528;11.010;2023-05-15T01:30:40;7.40;;;3.90;;
79412;SDS011;68863;49.528;11.010;2023-05-15T01:31:43;6.18;;;3.28;;
79412;SDS011;68863;49.528;11.010;2023-05-15T01:34:17;6.78;;;3.78;;
79412;SDS011;68863;49.528;11.010;2023-05-15T01:35:25;6.47;;;3.70;;
79412;SDS011;68863;49.528;11.010;2023-05-15T01:36:50;8.05;;;3.45;;
79412;SDS011;68863;49.528;11.010;2023-05-15T01:39:08;6.43;;;3.22;;
79412;SDS011;68863;49.528;11.010;2023-05-15T01:40:11;5.95;;;3.42;;
79412;SDS011;68863;49.528;11.010;2023-05-15T01:41:27;6.60;;;3.90;;
79412;SDS011;68863;49.528;11.010;2023-05-15T01:42:35;8.00;;;3.67;;
79412;SDS011;68863;49.528;11.010;2023-05-15T01:43:41;7.18;;;3.78;;
79412;SDS011;68863;49.528;11.010;2023-05-15T01:44:45;7.45;;;3.72;;
79412;SDS011;68863;49.528;11.010;2023-05-15T01:45:54;7.93;;;3.83;;
79412;SDS011;68863;49.528;11.010;2023-05-15T01:47:00;6.40;;;3.58;;
79412;SDS011;68863;49.528;11.010;2023-05-15T01:48:05;7.22;;;3.90;;
79412;SDS011;68863;49.528;11.010;2023-05-15T01:49:08;6.75;;;3.55;;
79412;SDS011;68863;49.528;11.010;2023-05-15T01:50:13;7.78;;;3.92;;
79412;SDS011;68863;49.528;11.010;2023-05-15T01:51:16;6.72;;;4.43;;
79412;SDS011;68863;49.528;11.010;2023-05-15T01:52:25;8.18;;;3.80;;
79412;SDS011;68863;49.528;11.010;2023-05-15T01:53:32;7.05;;;3.67;;
79412;SDS011;68863;49.528;11.010;2023-05-15T01:54:35;6.55;;;3.67;;
79412;SDS011;68863;49.528;11.010;2023-05-15T01:55:36;7.07;;;3.58;;
79412;SDS011;68863;49.528;11.010;2023-05-15T01:56:38;6.18;;;3.42;;
79412;SDS011;68863;49.528;11.010;2023-05-15T01:57:41;7.55;;;3.83;;
79412;SDS011;68863;49.528;11.010;2023-05-15T01:58:42;6.85;;;4.03;;
79412;SDS011;68863;49.528;11.010;2023-05-15T01:59:43;7.03;;;4.05;;
79412;SDS011;68863;49.528;11.010;2023-05-15T02:00:44;6.90;;;3.70;;
79412;SDS011;68863;49.528;11.010;2023-05-15T02:01:46;6.97;;;3.75;;
79412;SDS011;68863;49.528;11.010;2023-05-15T02:02:47;6.40;;;3.55;;
79412;SDS011;68863;49.528;11.010;2023-05-15T02:03:48;6.97;;;3.63;;
79412;SDS011;68863;49.528;11.010;2023-05-15T02:04:49;7.07;;;3.65;;
79412;SDS011;68863;49.528;11.010;2023-05-15T02:05:51;7.30;;;3.63;;
79412;SDS011;68863;49.528;11.010;2023-05-15T02:06:52;7.75;;;3.85;;
79412;SDS011;68863;49.528;11.010;2023-05-15T02:07:54;7.13;;;3.88;;
79412;SDS011;68863;49.528;11.010;2023-05-15T02:08:56;6.00;;;3.28;;
79412;SDS011;68863;49.528;11.010;2023-05-15T02:09:56;6.90;;;4.25;;
79412;SDS011;68863;49.528;11.010;2023-05-15T02:10:59;6.75;;;3.38;;
79412;SDS011;68863;49.528;11.010;2023-05-15T02:12:01;6.88;;;3.53;;
79412;SDS011;68863;49.528;11.010;2023-05-15T02:13:03;7.20;;;4.25;;
79412;SDS011;68863;49.528;11.010;2023-05-15T02:14:06;7.22;;;3.90;;
79412;SDS011;68863;49.528;11.010;2023-05-15T02:15:08;6.35;;;3.65;;
79412;SDS011;68863;49.528;11.010;2023-05-15T02:16:09;7.07;;;3.78;;
79412;SDS011;68863;49.528;11.010;2023-05-15T02:17:09;6.47;;;3.60;;
79412;SDS011;68863;49.528;11.010;2023-05-15T02:18:10;7.68;;;3.80;;
79412;SDS011;68863;49.528;11.010;2023-05-15T02:19:10;8.35;;;4.03;;
79412;SDS011;68863;49.528;11.010;2023-05-15T02:20:11;8.20;;;4.30;;
79412;SDS011;68863;49.528;11.010;2023-05-15T02:21:11;8.75;;;3.72;;
79412;SDS011;68863;49.528;11.010;2023-05-15T02:22:11;6.60;;;3.95;;
79412;SDS011;68863;49.528;11.010;2023-05-15T02:23:12;8.65;;;4.22;;
79412;SDS011;68863;49.528;11.010;2023-05-15T02:24:12;8.10;;;4.32;;
79412;SDS011;68863;49.528;11.010;2023-05-15T02:25:12;7.60;;;4.22;;
79412;SDS011;68863;49.528;11.010;2023-05-15T02:26:18;7.97;;;4.40;;
79412;SDS011;68863;49.528;11.010;2023-05-15T02:30:37;7.13;;;3.83;;
79412;SDS011;68863;49.528;11.010;2023-05-15T02:34:16;7.80;;;4.38;;
79412;SDS011;68863;49.528;11.010;2023-05-15T02:35:31;8.07;;;4.05;;
79412;SDS011;68863;49.528;11.010;2023-05-15T02:36:36;7.32;;;4.00;;
79412;SDS011;68863;49.528;11.010;2023-05-15T02:37:40;8.63;;;4.50;;
79412;SDS011;68863;49.528;11.010;2023-05-15T02:38:47;11.00;;;4.20;;
79412;SDS011;68863;49.528;11.010;2023-05-15T02:39:50;7.25;;;3.78;;
79412;SDS011;68863;49.528;11.010;2023-05-15T02:40:54;7.72;;;4.05;;
79412;SDS011;68863;49.528;11.010;2023-05-15T02:41:54;6.80;;;3.63;;
79412;SDS011;68863;49.528;11.010;2023-05-15T02:42:56;6.85;;;3.95;;
79412;SDS011;68863;49.528;11.010;2023-05-15T02:43:57;6.95;;;3.70;;
79412;SDS011;68863;49.528;11.010;2023-05-15T02:44:59;6.93;;;4.20;;
79412;SDS011;68863;49.528;11.010;2023-05-15T02:46:01;7.43;;;4.20;;
79412;SDS011;68863;49.528;11.010;2023-05-15T02:47:03;7.00;;;4.43;;
79412;SDS011;68863;49.528;11.010;2023-05-15T02:48:04;6.63;;;4.05;;
79412;SDS011;68863;49.528;11.010;2023-05-15T02:49:05;6.75;;;4.05;;
79412;SDS011;68863;49.528;11.010;2023-05-15T02:50:06;7.03;;;3.58;;
79412;SDS011;68863;49.528;11.010;2023-05-15T02:51:07;7.35;;;3.90;;
79412;SDS011;68863;49.528;11.010;2023-05-15T02:52:08;6.88;;;4.20;;
79412;SDS011;68863;49.528;11.010;2023-05-15T02:53:08;6.43;;;4.07;;
79412;SDS011;68863;49.528;11.010;2023-05-15T02:54:09;6.93;;;3.78;;
79412;SDS011;68863;49.528;11.010;2023-05-15T02:55:10;7.30;;;4.47;;
79412;SDS011;68863;49.528;11.010;2023-05-15T02:56:10;7.18;;;3.78;;
79412;SDS011;68863;49.528;11.010;2023-05-15T02:57:11;6.68;;;3.85;;
79412;SDS011;68863;49.528;11.010;2023-05-15T02:58:11;5.73;;;3.07;;
79412;SDS011;68863;49.528;11.010;2023-05-15T02:59:11;6.53;;;3.70;;
79412;SDS011;68863;49.528;11.010;2023-05-15T03:00:17;6.53;;;3.35;;
79412;SDS011;68863;49.528;11.010;2023-05-15T03:01:18;5.47;;;3.10;;
79412;SDS011;68863;49.528;11.010;2023-05-15T03:02:18;5.90;;;3.08;;
79412;SDS011;68863;49.528;11.010;2023-05-15T03:03:18;5.53;;;2.83;;
79412;SDS011;68863;49.528;11.010;2023-05-15T03:04:19;8.15;;;3.72;;
79412;SDS011;68863;49.528;11.010;2023-05-15T03:05:19;6.47;;;3.63;;
79412;SDS011;68863;49.528;11.010;2023-05-15T03:06:20;6.40;;;3.58;;
79412;SDS011;68863;49.528;11.010;2023-05-15T03:07:20;6.38;;;3.33;;
79412;SDS011;68863;49.528;11.010;2023-05-15T03:08:20;7.78;;;3.33;;
79412;SDS011;68863;49.528;11.010;2023-05-15T03:09:21;6.53;;;3.72;;
79412;SDS011;68863;49.528;11.010;2023-05-15T03:10:21;6.57;;;3.70;;
79412;SDS011;68863;49.528;11.010;2023-05-15T03:11:23;6.85;;;3.75;;
79412;SDS011;68863;49.528;11.010;2023-05-15T03:12:23;7.78;;;5.47;;
79412;SDS011;68863;49.528;11.010;2023-05-15T03:13:23;7.68;;;4.00;;
79412;SDS011;68863;49.528;11.010;2023-05-15T03:14:23;7.82;;;4.40;;
79412;SDS011;68863;49.528;11.010;2023-05-15T03:15:24;7.03;;;3.33;;
79412;SDS011;68863;49.528;11.010;2023-05-15T03:16:25;7.40;;;3.65;;
79412;SDS011;68863;49.528;11.010;2023-05-15T03:17:26;7.40;;;3.38;;
79412;SDS011;68863;49.528;11.010;2023-05-15T03:18:26;5.93;;;3.20;;
79412;SDS011;68863;49.528;11.010;2023-05-15T03:19:27;8.07;;;4.07;;
79412;SDS011;68863;49.528;11.010;2023-05-15T03:20:27;7.80;;;3.97;;
79412;SDS011;68863;49.528;11.010;2023-05-15T03:21:27;6.78;;;3.83;;
79412;SDS011;68863;49.528;11.010;2023-05-15T03:22:27;5.85;;;3.40;;
79412;SDS011;68863;49.528;11.010;2023-05-15T03:23:28;6.68;;;3.47;;
79412;SDS011;68863;49.528;11.010;2023-05-15T03:24:30;7.13;;;3.63;;
79412;SDS011;68863;49.528;11.010;2023-05-15T03:25:30;6.33;;;3.67;;
79412;SDS011;68863;49.528;11.010;2023-05-15T03:26:30;7.30;;;3.50;;
79412;SDS011;68863;49.528;11.010;2023-05-15T03:27:30;7.15;;;4.00;;
79412;SDS011;68863;49.528;11.010;2023-05-15T03:28:31;6.35;;;3.80;;
79412;SDS011;68863;49.528;11.010;2023-05-15T03:29:31;9.48;;;3.78;;
79412;SDS011;68863;49.528;11.010;2023-05-15T03:30:31;7.43;;;3.63;;
79412;SDS011;68863;49.528;11.010;2023-05-15T03:31:32;7.40;;;4.28;;
79412;SDS011;68863;49.528;11.010;2023-05-15T03:32:32;7.35;;;4.22;;
79412;SDS011;68863;49.528;11.010;2023-05-15T03:33:33;6.22;;;3.63;;
79412;SDS011;68863;49.528;11.010;2023-05-15T03:34:33;6.78;;;3.38;;
79412;SDS011;68863;49.528;11.010;2023-05-15T03:35:34;7.03;;;3.70;;
79412;SDS011;68863;49.528;11.010;2023-05-15T03:36:35;7.50;;;4.22;;
79412;SDS011;68863;49.528;11.010;2023-05-15T03:37:35;7.20;;;3.40;;
79412;SDS011;68863;49.528;11.010;2023-05-15T03:38:35;6.67;;;3.73;;
79412;SDS011;68863;49.528;11.010;2023-05-15T03:39:36;9.60;;;4.28;;
79412;SDS011;68863;49.528;11.010;2023-05-15T03:40:39;8.93;;;4.78;;
79412;SDS011;68863;49.528;11.010;2023-05-15T03:41:39;7.40;;;3.95;;
79412;SDS011;68863;49.528;11.010;2023-05-15T03:42:40;7.75;;;3.90;;
79412;SDS011;68863;49.528;11.010;2023-05-15T03:43:40;7.87;;;3.80;;
79412;SDS011;68863;49.528;11.010;2023-05-15T03:44:40;8.80;;;4.28;;
79412;SDS011;68863;49.528;11.010;2023-05-15T03:45:40;6.60;;;3.80;;
79412;SDS011;68863;49.528;11.010;2023-05-15T03:46:41;6.85;;;4.07;;
79412;SDS011;68863;49.528;11.010;2023-05-15T03:47:41;8.50;;;3.75;;
79412;SDS011;68863;49.528;11.010;2023-05-15T03:48:41;6.80;;;3.80;;
79412;SDS011;68863;49.528;11.010;2023-05-15T03:49:42;7.00;;;4.47;;
79412;SDS011;68863;49.528;11.010;2023-05-15T03:50:43;7.30;;;4.03;;
79412;SDS011;68863;49.528;11.010;2023-05-15T03:51:43;7.30;;;3.72;;
79412;SDS011;68863;49.528;11.010;2023-05-15T03:52:43;7.50;;;3.92;;
79412;SDS011;68863;49.528;11.010;2023-05-15T03:53:44;6.88;;;3.60;;
79412;SDS011;68863;49.528;11.010;2023-05-15T03:54:44;8.60;;;4.03;;
79412;SDS011;68863;49.528;11.010;2023-05-15T03:55:45;6.57;;;3.83;;
79412;SDS011;68863;49.528;11.010;2023-05-15T03:56:45;6.75;;;3.42;;
79412;SDS011;68863;49.528;11.010;2023-05-15T03:57:45;7.63;;;3.80;;
79412;SDS011;68863;49.528;11.010;2023-05-15T03:58:45;7.40;;;3.75;;
79412;SDS011;68863;49.528;11.010;2023-05-15T03:59:46;7.23;;;3.90;;
79412;SDS011;68863;49.528;11.010;2023-05-15T04:00:46;6.47;;;3.70;;
79412;SDS011;68863;49.528;11.010;2023-05-15T04:01:46;7.95;;;4.88;;
79412;SDS011;68863;49.528;11.010;2023-05-15T04:02:47;8.07;;;4.05;;
79412;SDS011;68863;49.528;11.010;2023-05-15T04:03:47;6.82;;;3.78;;
79412;SDS011;68863;49.528;11.010;2023-05-15T04:04:47;7.40;;;3.88;;
79412;SDS011;68863;49.528;11.010;2023-05-15T04:05:47;7.65;;;3.55;;
79412;SDS011;68863;49.528;11.010;2023-05-15T04:06:49;6.47;;;3.83;;
79412;SDS011;68863;49.528;11.010;2023-05-15T04:07:50;6.95;;;4.05;;
79412;SDS011;68863;49.528;11.010;2023-05-15T04:08:50;6.90;;;3.20;;
79412;SDS011;68863;49.528;11.010;2023-05-15T04:09:50;6.55;;;3.78;;
79412;SDS011;68863;49.528;11.010;2023-05-15T04:10:51;7.87;;;3.73;;
79412;SDS011;68863;49.528;11.010;2023-05-15T04:11:51;7.57;;;3.53;;
79412;SDS011;68863;49.528;11.010;2023-05-15T04:12:51;7.82;;;3.80;;
79412;SDS011;68863;49.528;11.010;2023-05-15T04:13:51;6.85;;;4.05;;
79412;SDS011;68863;49.528;11.010;2023-05-15T04:14:52;6.60;;;3.67;;
79412;SDS011;68863;49.528;11.010;2023-05-15T04:15:52;6.43;;;4.00;;
79412;SDS011;68863;49.528;11.010;2023-05-15T04:16:52;6.28;;;3.05;;
79412;SDS011;68863;49.528;11.010;2023-05-15T04:17:53;7.65;;;3.30;;
79412;SDS011;68863;49.528;11.010;2023-05-15T04:18:54;6.15;;;3.63;;
79412;SDS011;68863;49.528;11.010;2023-05-15T04:19:54;7.50;;;3.53;;
79412;SDS011;68863;49.528;11.010;2023-05-15T04:20:54;6.63;;;3.40;;
79412;SDS011;68863;49.528;11.010;2023-05-15T04:21:55;5.70;;;3.10;;
79412;SDS011;68863;49.528;11.010;2023-05-15T04:22:55;8.48;;;3.08;;
79412;SDS011;68863;49.528;11.010;2023-05-15T04:23:55;6.22;;;3.08;;
79412;SDS011;68863;49.528;11.010;2023-05-15T04:24:55;8.00;;;4.00;;
79412;SDS011;68863;49.528;11.010;2023-05-15T04:25:56;6.30;;;3.20;;
79412;SDS011;68863;49.528;11.010;2023-05-15T04:26:56;7.57;;;3.90;;
79412;SDS011;68863;49.528;11.010;2023-05-15T04:27:57;6.72;;;3.47;;
79412;SDS011;68863;49.528;11.010;2023-05-15T04:28:57;6.05;;;3.40;;
79412;SDS011;68863;49.528;11.010;2023-05-15T04:29:58;8.52;;;3.85;;
79412;SDS011;68863;49.528;11.010;2023-05-15T04:31:00;5.68;;;3.17;;
79412;SDS011;68863;49.528;11.010;2023-05-15T04:34:16;8.63;;;3.15;;
79412;SDS011;68863;49.528;11.010;2023-05-15T04:35:16;6.90;;;3.20;;
79412;SDS011;68863;49.528;11.010;2023-05-15T04:36:17;7.85;;;3.55;;
79412;SDS011;68863;49.528;11.010;2023-05-15T04:37:17;5.75;;;3.35;;
79412;SDS011;68863;49.528;11.010;2023-05-15T04:38:17;6.20;;;3.45;;
79412;SDS011;68863;49.528;11.010;2023-05-15T04:39:18;8.88;;;3.42;;
79412;SDS011;68863;49.528;11.010;2023-05-15T04:40:18;7.00;;;3.27;;
79412;SDS011;68863;49.528;11.010;2023-05-15T04:41:19;8.23;;;2.97;;
79412;SDS011;68863;49.528;11.010;2023-05-15T04:42:19;6.88;;;3.33;;
79412;SDS011;68863;49.528;11.010;2023-05-15T04:43:20;7.40;;;4.28;;
79412;SDS011;68863;49.528;11.010;2023-05-15T04:44:20;6.10;;;3.07;;
79412;SDS011;68863;49.528;11.010;2023-05-15T04:45:20;7.17;;;2.87;;
79412;SDS011;68863;49.528;11.010;2023-05-15T04:46:20;5.93;;;3.07;;
79412;SDS011;68863;49.528;11.010;2023-05-15T04:47:21;6.32;;;3.35;;
79412;SDS011;68863;49.528;11.010;2023-05-15T04:48:21;5.90;;;3.00;;
79412;SDS011;68863;49.528;11.010;2023-05-15T04:49:21;7.97;;;3.25;;
79412;SDS011;68863;49.528;11.010;2023-05-15T04:50:21;6.57;;;3.30;;
79412;SDS011;68863;49.528;11.010;2023-05-15T04:51:22;8.60;;;3.58;;
79412;SDS011;68863;49.528;11.010;2023-05-15T04:52:22;6.47;;;3.28;;
79412;SDS011;68863;49.528;11.010;2023-05-15T04:53:22;5.70;;;2.60;;
79412;SDS011;68863;49.528;11.010;2023-05-15T04:54:22;6.30;;;3.33;;
79412;SDS011;68863;49.528;11.010;2023-05-15T04:55:23;7.95;;;3.40;;
79412;SDS011;68863;49.528;11.010;2023-05-15T04:56:23;6.00;;;3.08;;
79412;SDS011;68863;49.528;11.010;2023-05-15T04:57:24;7.00;;;3.20;;
79412;SDS011;68863;49.528;11.010;2023-05-15T04:58:24;6.13;;;2.95;;
79412;SDS011;68863;49.528;11.010;2023-05-15T04:59:25;6.63;;;3.70;;
79412;SDS011;68863;49.528;11.010;2023-05-15T05:01:27;6.85;;;3.15;;
79412;SDS011;68863;49.528;11.010;2023-05-15T05:02:28;6.90;;;3.53;;
79412;SDS011;68863;49.528;11.010;2023-05-15T05:03:28;6.70;;;3.53;;
79412;SDS011;68863;49.528;11.010;2023-05-15T05:04:28;6.38;;;3.50;;
79412;SDS011;68863;49.528;11.010;2023-05-15T05:05:28;8.63;;;4.00;;
79412;SDS011;68863;49.528;11.010;2023-05-15T05:06:29;7.97;;;3.50;;
79412;SDS011;68863;49.528;11.010;2023-05-15T05:07:29;7.32;;;3.60;;
79412;SDS011;68863;49.528;11.010;2023-05-15T05:08:30;8.73;;;4.03;;
79412;SDS011;68863;49.528;11.010;2023-05-15T05:09:30;8.48;;;4.10;;
79412;SDS011;68863;49.528;11.010;2023-05-15T05:10:30;7.40;;;4.18;;
79412;SDS011;68863;49.528;11.010;2023-05-15T05:11:31;7.13;;;3.73;;
79412;SDS011;68863;49.528;11.010;2023-05-15T05:12:31;7.77;;;3.83;;
79412;SDS011;68863;49.528;11.010;2023-05-15T05:13:31;9.20;;;4.90;;
79412;SDS011;68863;49.528;11.010;2023-05-15T05:14:32;9.15;;;4.13;;
79412;SDS011;68863;49.528;11.010;2023-05-15T05:15:32;7.50;;;4.13;;
79412;SDS011;68863;49.528;11.010;2023-05-15T05:16:32;7.78;;;3.95;;
79412;SDS011;68863;49.528;11.010;2023-05-15T05:17:33;8.10;;;4.72;;
79412;SDS011;68863;49.528;11.010;2023-05-15T05:18:33;8.07;;;4.18;;
79412;SDS011;68863;49.528;11.010;2023-05-15T05:19:33;9.13;;;4.23;;
79412;SDS011;68863;49.528;11.010;2023-05-15T05:20:33;7.97;;;4.20;;
79412;SDS011;68863;49.528;11.010;2023-05-15T05:21:34;7.97;;;4.78;;
79412;SDS011;68863;49.528;11.010;2023-05-15T05:22:34;8.07;;;4.55;;
79412;SDS011;68863;49.528;11.010;2023-05-15T05:23:34;8.68;;;4.20;;
79412;SDS011;68863;49.528;11.010;2023-05-15T05:24:35;9.63;;;5.25;;
79412;SDS011;68863;49.528;11.010;2023-05-15T05:25:36;7.95;;;4.57;;
79412;SDS011;68863;49.528;11.010;2023-05-15T05:26:36;8.00;;;5.13;;
79412;SDS011;68863;49.528;11.010;2023-05-15T05:27:36;8.27;;;4.95;;
79412;SDS011;68863;49.528;11.010;2023-05-15T05:28:37;8.73;;;4.73;;
79412;SDS011;68863;49.528;11.010;2023-05-15T05:29:37;8.05;;;4.63;;
79412;SDS011;68863;49.528;11.010;2023-05-15T05:30:38;10.18;;;6.13;;
79412;SDS011;68863;49.528;11.010;2023-05-15T05:31:39;8.73;;;5.70;;
79412;SDS011;68863;49.528;11.010;2023-05-15T05:32:40;9.07;;;4.97;;
79412;SDS011;68863;49.528;11.010;2023-05-15T05:33:40;9.13;;;5.07;;
79412;SDS011;68863;49.528;11.010;2023-05-15T05:34:41;9.23;;;4.82;;
79412;SDS011;68863;49.528;11.010;2023-05-15T05:35:41;9.57;;;5.53;;
79412;SDS011;68863;49.528;11.010;2023-05-15T05:36:41;10.25;;;5.70;;
79412;SDS011;68863;49.528;11.010;2023-05-15T05:37:46;11.82;;;5.72;;
79412;SDS011;68863;49.528;11.010;2023-05-15T05:38:49;10.23;;;5.55;;
79412;SDS011;68863;49.528;11.010;2023-05-15T05:39:50;7.90;;;5.03;;
79412;SDS011;68863;49.528;11.010;2023-05-15T05:40:50;10.00;;;5.77;;
79412;SDS011;68863;49.528;11.010;2023-05-15T05:41:50;8.85;;;5.18;;
79412;SDS011;68863;49.528;11.010;2023-05-15T05:43:33;9.02;;;5.13;;
79412;SDS011;68863;49.528;11.010;2023-05-15T05:44:33;9.70;;;4.45;;
79412;SDS011;68863;49.528;11.010;2023-05-15T05:45:33;9.30;;;4.63;;
79412;SDS011;68863;49.528;11.010;2023-05-15T05:46:33;8.17;;;4.70;;
79412;SDS011;68863;49.528;11.010;2023-05-15T05:47:34;8.88;;;4.97;;
79412;SDS011;68863;49.528;11.010;2023-05-15T05:48:34;8.75;;;4.88;;
79412;SDS011;68863;49.528;11.010;2023-05-15T05:49:35;7.78;;;4.55;;
79412;SDS011;68863;49.528;11.010;2023-05-15T05:50:35;8.80;;;5.03;;
79412;SDS011;68863;49.528;11.010;2023-05-15T05:51:36;9.23;;;4.70;;
79412;SDS011;68863;49.528;11.010;2023-05-15T05:52:36;9.52;;;4.60;;
79412;SDS011;68863;49.528;11.010;2023-05-15T05:53:36;8.82;;;4.60;;
79412;SDS011;68863;49.528;11.010;2023-05-15T05:54:36;8.93;;;5.00;;
79412;SDS011;68863;49.528;11.010;2023-05-15T05:55:37;8.60;;;5.10;;
79412;SDS011;68863;49.528;11.010;2023-05-15T05:56:37;8.82;;;4.78;;
79412;SDS011;68863;49.528;11.010;2023-05-15T05:57:38;7.97;;;4.45;;
79412;SDS011;68863;49.528;11.010;2023-05-15T05:58:38;7.50;;;4.50;;
79412;SDS011;68863;49.528;11.010;2023-05-15T05:59:38;8.40;;;4.75;;
79412;SDS011;68863;49.528;11.010;2023-05-15T06:00:39;8.18;;;4.90;;
79412;SDS011;68863;49.528;11.010;2023-05-15T06:01:39;9.90;;;4.72;;
79412;SDS011;68863;49.528;11.010;2023-05-15T06:02:39;9.20;;;5.00;;
79412;SDS011;68863;49.528;11.010;2023-05-15T06:03:40;9.18;;;5.22;;
79412;SDS011;68863;49.528;11.010;2023-05-15T06:04:42;9.15;;;5.57;;
79412;SDS011;68863;49.528;11.010;2023-05-15T06:05:42;8.70;;;4.97;;
79412;SDS011;68863;49.528;11.010;2023-05-15T06:06:42;8.50;;;4.97;;
79412;SDS011;68863;49.528;11.010;2023-05-15T06:07:42;10.00;;;5.63;;
79412;SDS011;68863;49.528;11.010;2023-05-15T06:08:43;8.73;;;5.25;;
79412;SDS011;68863;49.528;11.010;2023-05-15T06:09:43;9.57;;;5.13;;
79412;SDS011;68863;49.528;11.010;2023-05-15T06:10:45;10.15;;;5.30;;
79412;SDS011;68863;49.528;11.010;2023-05-15T06:11:45;8.30;;;4.35;;
79412;SDS011;68863;49.528;11.010;2023-05-15T06:12:45;8.63;;;4.72;;
79412;SDS011;68863;49.528;11.010;2023-05-15T06:13:47;8.50;;;4.43;;
79412;SDS011;68863;49.528;11.010;2023-05-15T06:14:48;8.90;;;4.63;;
79412;SDS011;68863;49.528;11.010;2023-05-15T06:15:48;8.40;;;4.35;;
79412;SDS011;68863;49.528;11.010;2023-05-15T06:16:49;8.13;;;4.75;;
79412;SDS011;68863;49.528;11.010;2023-05-15T06:17:50;8.20;;;4.68;;
79412;SDS011;68863;49.528;11.010;2023-05-15T06:18:50;8.40;;;4.47;;
79412;SDS011;68863;49.528;11.010;2023-05-15T06:19:50;8.90;;;4.73;;
79412;SDS011;68863;49.528;11.010;2023-05-15T06:20:50;8.02;;;4.65;;
79412;SDS011;68863;49.528;11.010;2023-05-15T06:21:52;7.75;;;4.55;;
79412;SDS011;68863;49.528;11.010;2023-05-15T06:22:52;8.10;;;4.47;;